createdAt,value
2023-01-17T00:00:03.743Z,7.17
2023-01-17T00:02:32.970Z,7.09
2023-01-17T00:05:18.250Z,7.01
2023-01-17T00:08:04.008Z,7.07
2023-01-17T00:10:31.392Z,7.20
2023-01-17T00:13:03.503Z,7.43
2023-01-17T00:15:31.585Z,7.36
2023-01-17T00:17:59.166Z,7.39
2023-01-17T00:20:47.409Z,7.26
2023-01-17T00:23:35.989Z,7.32
2023-01-17T00:26:04.505Z,7.33
2023-01-17T00:28:39.520Z,7.48
2023-01-17T00:31:08.624Z,7.35
2023-01-17T00:33:35.796Z,7.19
2023-01-17T00:36:03.942Z,7.09
2023-01-17T00:38:33.352Z,7.05
2023-01-17T00:41:18.317Z,7.05
2023-01-17T00:44:03.612Z,7.21
2023-01-17T00:46:49.263Z,7.02
2023-01-17T00:49:34.761Z,6.77
2023-01-17T00:52:20.544Z,6.69
2023-01-17T00:55:06.083Z,6.63
2023-01-17T00:57:51.708Z,6.73
2023-01-17T01:00:37.849Z,6.80
2023-01-17T01:03:30.105Z,6.68
2023-01-17T01:06:15.375Z,6.61
2023-01-17T01:09:01.098Z,6.44
2023-01-17T01:11:46.490Z,6.59
2023-01-17T01:14:32.219Z,6.67
2023-01-17T01:17:17.489Z,6.59
2023-01-17T01:20:03.179Z,6.45
2023-01-17T01:22:48.823Z,6.50
2023-01-17T01:25:34.342Z,6.77
2023-01-17T01:28:29.985Z,6.98
2023-01-17T01:31:18.493Z,7.10
2023-01-17T01:33:45.407Z,7.01
2023-01-17T01:36:12.438Z,7.16
2023-01-17T01:38:39.871Z,7.33
2023-01-17T01:41:06.836Z,7.33
2023-01-17T01:43:44.325Z,6.91
2023-01-17T01:46:30.397Z,6.89
2023-01-17T01:49:13.578Z,7.27
2023-01-17T01:51:43.433Z,7.41
2023-01-17T01:54:30.897Z,7.47
2023-01-17T01:57:00.747Z,7.43
2023-01-17T01:59:27.823Z,7.51
2023-01-17T02:01:56.435Z,7.37
2023-01-17T02:04:25.367Z,7.21
2023-01-17T02:06:59.912Z,7.38
2023-01-17T02:09:27.238Z,7.46
2023-01-17T02:11:54.753Z,7.23
2023-01-17T02:14:22.899Z,7.47
2023-01-17T02:17:20.390Z,7.34
2023-01-17T02:19:56.211Z,7.55
2023-01-17T02:23:01.605Z,7.52
2023-01-17T02:25:49.774Z,7.72
2023-01-17T02:28:27.789Z,7.83
2023-01-17T02:31:05.563Z,7.62
2023-01-17T02:33:32.429Z,7.57
2023-01-17T02:36:20.171Z,7.55
2023-01-17T02:39:03.143Z,7.49
2023-01-17T02:41:37.035Z,7.62
2023-01-17T02:44:05.157Z,7.38
2023-01-17T02:46:32.028Z,7.18
2023-01-17T02:49:00.500Z,7.24
2023-01-17T02:51:44.957Z,7.31
2023-01-17T02:54:35.689Z,7.62
2023-01-17T02:57:17.896Z,7.54
2023-01-17T03:00:05.324Z,7.30
2023-01-17T03:02:58.185Z,7.24
2023-01-17T03:05:48.042Z,7.23
2023-01-17T03:08:15.923Z,7.47
2023-01-17T03:10:44.427Z,7.41
2023-01-17T03:13:11.399Z,7.32
2023-01-17T03:15:40.207Z,7.08
2023-01-17T03:18:12.700Z,6.97
2023-01-17T03:20:39.764Z,7.10
2023-01-17T03:23:06.812Z,7.38
2023-01-17T03:25:34.111Z,7.25
2023-01-17T03:28:00.962Z,7.22
2023-01-17T03:30:28.006Z,7.21
2023-01-17T03:32:54.964Z,7.05
2023-01-17T03:35:21.968Z,7.08
2023-01-17T03:37:48.873Z,7.28
2023-01-17T03:40:15.800Z,7.16
2023-01-17T03:42:42.895Z,7.11
2023-01-17T03:45:10.162Z,6.94
2023-01-17T03:47:37.136Z,6.98
2023-01-17T03:50:04.649Z,6.91
2023-01-17T03:52:31.527Z,7.11
2023-01-17T03:54:58.502Z,6.98
2023-01-17T03:57:25.461Z,6.89
2023-01-17T03:59:52.294Z,6.78
2023-01-17T04:02:19.348Z,6.81
2023-01-17T04:04:46.389Z,6.87
2023-01-17T04:07:13.281Z,7.17
2023-01-17T04:09:40.177Z,7.23
2023-01-17T04:12:07.295Z,6.99
2023-01-17T04:14:34.169Z,7.00
2023-01-17T04:17:01.585Z,7.02
2023-01-17T04:19:28.747Z,7.24
2023-01-17T04:21:55.775Z,6.99
2023-01-17T04:24:22.682Z,7.24
2023-01-17T04:26:49.531Z,7.06
2023-01-17T04:29:16.401Z,7.20
2023-01-17T04:31:43.292Z,7.24
2023-01-17T04:34:10.415Z,7.30
2023-01-17T04:36:38.131Z,7.40
2023-01-17T04:39:05.292Z,7.39
2023-01-17T04:41:32.199Z,7.51
2023-01-17T04:43:59.067Z,7.62
2023-01-17T04:46:26.079Z,7.56
2023-01-17T04:48:53.024Z,7.88
2023-01-17T04:51:19.934Z,8.06
2023-01-17T04:53:46.998Z,8.05
2023-01-17T04:56:13.953Z,7.94
2023-01-17T04:58:40.862Z,7.88
2023-01-17T05:01:08.644Z,8.00
2023-01-17T05:03:35.661Z,8.16
2023-01-17T05:06:02.915Z,8.01
2023-01-17T05:08:29.927Z,7.86
2023-01-17T05:10:57.218Z,8.19
2023-01-17T05:13:24.166Z,8.33
2023-01-17T05:15:51.190Z,8.37
2023-01-17T05:18:18.669Z,8.59
2023-01-17T05:20:45.721Z,8.68
2023-01-17T05:23:12.874Z,8.59
2023-01-17T05:25:44.847Z,8.39
2023-01-17T05:28:15.272Z,8.49
2023-01-17T05:30:42.260Z,8.50
2023-01-17T05:33:10.343Z,8.65
2023-01-17T05:35:37.857Z,8.74
2023-01-17T05:38:05.138Z,8.67
2023-01-17T05:40:33.500Z,8.68
2023-01-17T05:43:01.705Z,8.56
2023-01-17T05:45:29.995Z,8.55
2023-01-17T05:47:58.560Z,8.82
2023-01-17T05:50:31.939Z,8.75
2023-01-17T05:53:04.460Z,8.50
2023-01-17T05:55:31.983Z,8.46
2023-01-17T05:57:59.661Z,8.50
2023-01-17T06:00:27.023Z,8.73
2023-01-17T06:02:56.250Z,8.81
2023-01-17T06:05:24.251Z,8.86
2023-01-17T06:07:51.234Z,8.70
2023-01-17T06:10:20.769Z,8.70
2023-01-17T06:12:48.057Z,8.82
2023-01-17T06:15:16.909Z,8.99
2023-01-17T06:17:44.008Z,9.08
2023-01-17T06:20:12.160Z,9.15
2023-01-17T06:22:39.098Z,9.11
2023-01-17T06:25:07.465Z,9.15
2023-01-17T06:27:34.495Z,9.22
2023-01-17T06:30:01.536Z,9.46
2023-01-17T06:32:28.468Z,9.54
2023-01-17T06:34:55.382Z,9.50
2023-01-17T06:37:22.556Z,9.35
2023-01-17T06:39:49.517Z,9.54
2023-01-17T06:42:16.453Z,9.67
2023-01-17T06:44:43.381Z,9.80
2023-01-17T06:47:10.343Z,9.79
2023-01-17T06:49:37.256Z,9.60
2023-01-17T06:52:04.343Z,9.43
2023-01-17T06:54:31.212Z,9.55
2023-01-17T06:56:58.312Z,9.55
2023-01-17T06:59:25.344Z,9.82
2023-01-17T07:01:52.631Z,9.79
2023-01-17T07:04:19.878Z,9.63
2023-01-17T07:06:46.955Z,9.54
2023-01-17T07:09:13.806Z,9.55
2023-01-17T07:11:40.721Z,9.65
2023-01-17T07:14:13.071Z,9.82
2023-01-17T07:16:40.022Z,9.72
2023-01-17T07:19:06.886Z,9.50
2023-01-17T07:21:33.831Z,9.43
2023-01-17T07:24:00.663Z,9.49
2023-01-17T07:26:27.585Z,9.65
2023-01-17T07:28:54.569Z,9.72
2023-01-17T07:31:21.477Z,9.74
2023-01-17T07:33:48.441Z,9.69
2023-01-17T07:36:15.394Z,9.66
2023-01-17T07:38:44.038Z,9.74
2023-01-17T07:41:11.146Z,10.00
2023-01-17T07:43:38.198Z,10.09
2023-01-17T07:46:08.133Z,10.02
2023-01-17T07:48:35.542Z,9.86
2023-01-17T07:51:02.485Z,9.88
2023-01-17T07:53:33.095Z,9.91
2023-01-17T07:56:07.759Z,10.22
2023-01-17T07:58:35.389Z,10.23
2023-01-17T08:01:07.734Z,10.16
2023-01-17T08:03:39.911Z,10.05
2023-01-17T08:06:20.378Z,10.15
2023-01-17T08:08:47.517Z,10.31
2023-01-17T08:11:15.203Z,10.46
2023-01-17T08:13:42.294Z,10.55
2023-01-17T08:16:13.396Z,10.32
2023-01-17T08:18:41.130Z,10.37
2023-01-17T08:21:16.880Z,10.39
2023-01-17T08:23:53.053Z,10.60
2023-01-17T08:26:22.508Z,10.71
2023-01-17T08:28:55.348Z,10.73
2023-01-17T08:31:22.674Z,10.72
2023-01-17T08:33:49.684Z,10.78
2023-01-17T08:36:17.053Z,10.73
2023-01-17T08:38:44.139Z,10.93
2023-01-17T08:41:11.056Z,11.07
2023-01-17T08:43:38.065Z,11.06
2023-01-17T08:46:06.649Z,11.12
2023-01-17T08:48:33.594Z,11.17
2023-01-17T08:51:02.487Z,11.28
2023-01-17T08:53:29.795Z,11.53
2023-01-17T08:56:01.328Z,11.68
2023-01-17T08:58:30.678Z,11.73
2023-01-17T09:01:02.999Z,11.66
2023-01-17T09:03:31.103Z,11.75
2023-01-17T09:06:03.339Z,11.79
2023-01-17T09:08:30.868Z,12.13
2023-01-17T09:10:58.243Z,12.17
2023-01-17T09:13:25.218Z,11.96
2023-01-17T09:15:56.730Z,12.08
2023-01-17T09:18:24.909Z,12.33
2023-01-17T09:20:55.212Z,12.40
2023-01-17T09:23:22.877Z,12.76
2023-01-17T09:25:58.048Z,12.96
2023-01-17T09:28:27.014Z,13.03
2023-01-17T09:30:54.548Z,13.12
2023-01-17T09:33:24.557Z,13.28
2023-01-17T09:35:51.557Z,13.27
2023-01-17T09:38:18.435Z,13.17
2023-01-17T09:40:47.597Z,12.88
2023-01-17T09:43:48.231Z,12.73
2023-01-17T10:17:54.557Z,12.69
2023-01-17T10:20:56.777Z,13.02
2023-01-17T10:23:46.283Z,13.29
2023-01-17T10:26:18.995Z,13.29
2023-01-17T10:28:51.673Z,13.31
2023-01-17T10:31:28.826Z,13.49
2023-01-17T10:34:15.370Z,13.51
2023-01-17T10:36:50.475Z,13.73
2023-01-17T10:39:22.720Z,13.75
2023-01-17T10:41:55.934Z,13.64
2023-01-17T10:44:35.113Z,13.63
2023-01-17T10:47:11.044Z,13.68
2023-01-17T10:49:46.826Z,13.89
2023-01-17T10:52:23.194Z,13.79
2023-01-17T10:54:53.833Z,13.94
2023-01-17T10:57:24.108Z,13.91
2023-01-17T10:59:52.455Z,13.91
2023-01-17T11:02:22.109Z,13.93
2023-01-17T11:04:54.504Z,14.12
2023-01-17T11:07:26.763Z,14.17
2023-01-17T11:09:58.806Z,14.37
2023-01-17T11:12:44.234Z,14.26
2023-01-17T11:15:11.066Z,14.30
2023-01-17T11:17:41.885Z,14.39
2023-01-17T11:20:22.892Z,14.46
2023-01-17T11:23:22.691Z,14.47
2023-01-17T11:25:55.187Z,14.28
2023-01-17T11:28:26.309Z,14.31
2023-01-17T11:30:56.192Z,14.49
2023-01-17T11:33:35.556Z,14.44
2023-01-17T11:36:02.880Z,14.27
2023-01-17T11:38:29.898Z,14.41
2023-01-17T11:41:16.727Z,14.39
2023-01-17T11:43:58.185Z,14.40
2023-01-17T11:46:26.296Z,14.37
2023-01-17T11:48:56.409Z,14.50
2023-01-17T11:51:41.452Z,14.48
2023-01-17T11:54:22.476Z,14.22
2023-01-17T11:56:50.691Z,14.42
2023-01-17T11:59:33.561Z,14.53
2023-01-17T12:02:37.231Z,14.48
2023-01-17T12:05:23.605Z,14.67
2023-01-17T12:08:00.402Z,14.60
2023-01-17T12:10:44.806Z,14.45
2023-01-17T12:13:58.664Z,14.36
2023-01-17T12:16:31.337Z,14.40
2023-01-17T12:19:34.211Z,14.63
2023-01-17T12:22:33.923Z,14.54
2023-01-17T12:25:23.188Z,14.45
2023-01-17T12:28:17.745Z,14.45
2023-01-17T12:31:20.377Z,14.51
2023-01-17T12:33:58.091Z,14.60
2023-01-17T12:36:31.144Z,14.76
2023-01-17T12:39:01.426Z,14.74
2023-01-17T12:41:47.748Z,14.76
2023-01-17T12:44:18.917Z,14.68
2023-01-17T12:47:00.992Z,14.80
2023-01-17T12:49:46.794Z,14.68
2023-01-17T12:52:35.433Z,14.70
2023-01-17T12:55:09.567Z,14.55
2023-01-17T12:57:45.447Z,14.56
2023-01-17T13:00:19.759Z,14.68
2023-01-17T13:03:16.310Z,14.58
2023-01-17T13:05:46.621Z,14.66
2023-01-17T13:08:13.492Z,14.55
2023-01-17T13:10:40.382Z,14.57
2023-01-17T13:13:30.599Z,14.53
2023-01-17T13:16:18.147Z,14.64
2023-01-17T13:18:49.184Z,14.69
2023-01-17T13:21:32.968Z,14.79
2023-01-17T13:24:00.258Z,14.61
2023-01-17T13:26:29.737Z,14.53
2023-01-17T13:29:37.685Z,14.65
2023-01-17T13:32:22.796Z,14.49
2023-01-17T13:35:36.143Z,14.61
2023-01-17T13:38:11.957Z,14.48
2023-01-17T13:40:54.994Z,14.27
2023-01-17T13:43:28.804Z,14.41
2023-01-17T13:46:03.265Z,14.38
2023-01-17T13:48:32.371Z,14.24
2023-01-17T13:51:06.289Z,14.40
2023-01-17T13:53:37.007Z,14.27
2023-01-17T13:56:15.721Z,14.05
2023-01-17T13:58:47.272Z,14.12
2023-01-17T14:01:14.698Z,14.11
2023-01-17T14:03:50.591Z,14.17
2023-01-17T14:06:33.479Z,14.23
2023-01-17T14:09:23.874Z,13.99
2023-01-17T14:12:06.049Z,13.85
2023-01-17T14:14:42.921Z,13.95
2023-01-17T14:17:20.557Z,13.85
2023-01-17T14:20:01.894Z,13.85
2023-01-17T14:22:33.287Z,13.91
2023-01-17T14:25:00.119Z,13.64
2023-01-17T14:27:29.282Z,13.54
2023-01-17T14:29:59.019Z,13.57
2023-01-17T14:32:37.497Z,13.34
2023-01-17T14:35:05.829Z,13.60
2023-01-17T14:37:32.666Z,13.49
2023-01-17T14:40:01.135Z,13.25
2023-01-17T14:42:33.271Z,13.15
2023-01-17T14:45:07.813Z,13.10
2023-01-17T14:47:39.478Z,13.21
2023-01-17T14:50:19.598Z,13.23
2023-01-17T14:52:46.591Z,13.24
2023-01-17T14:55:20.753Z,13.06
2023-01-17T14:57:56.258Z,13.00
2023-01-17T15:00:25.593Z,13.00
2023-01-17T15:02:53.903Z,13.04
2023-01-17T15:05:23.635Z,13.23
2023-01-17T15:07:54.136Z,13.02
2023-01-17T15:10:25.324Z,12.96
2023-01-17T15:12:52.852Z,12.85
2023-01-17T15:15:35.482Z,12.78
2023-01-17T15:18:14.282Z,12.96
2023-01-17T15:20:52.227Z,13.00
2023-01-17T15:23:21.958Z,12.80
2023-01-17T15:25:50.519Z,12.62
2023-01-17T15:28:18.104Z,12.62
2023-01-17T15:31:06.744Z,12.61
2023-01-17T15:33:35.389Z,12.77
2023-01-17T15:36:06.718Z,12.85
2023-01-17T15:38:39.167Z,12.69
2023-01-17T15:41:18.012Z,12.78
2023-01-17T15:43:45.472Z,12.73
2023-01-17T15:46:29.066Z,12.72
2023-01-17T15:49:26.257Z,13.01
2023-01-17T15:52:15.290Z,12.84
2023-01-17T15:54:56.621Z,12.63
2023-01-17T15:57:36.934Z,12.76
2023-01-17T16:00:20.785Z,12.59
2023-01-17T16:02:55.900Z,12.76
2023-01-17T16:05:27.741Z,13.00
2023-01-17T16:07:56.849Z,12.80
2023-01-17T16:10:24.981Z,12.65
2023-01-17T16:12:53.814Z,12.46
2023-01-17T16:15:22.163Z,12.54
2023-01-17T16:17:52.050Z,12.47
2023-01-17T16:20:34.846Z,12.70
2023-01-17T16:23:02.918Z,12.50
2023-01-17T16:25:33.087Z,12.40
2023-01-17T16:28:00.385Z,12.45
2023-01-17T16:30:28.088Z,12.41
2023-01-17T16:32:56.656Z,12.50
2023-01-17T16:35:27.765Z,12.56
2023-01-17T16:38:00.163Z,12.45
2023-01-17T16:40:33.040Z,12.37
2023-01-17T16:43:01.158Z,12.37
2023-01-17T16:45:28.264Z,12.30
2023-01-17T16:47:55.261Z,12.16
2023-01-17T16:50:24.763Z,12.43
2023-01-17T16:52:53.102Z,12.39
2023-01-17T16:55:22.922Z,12.25
2023-01-17T16:57:51.542Z,12.18
2023-01-17T17:00:19.529Z,12.25
2023-01-17T17:02:51.004Z,12.25
2023-01-17T17:05:18.314Z,12.48
2023-01-17T17:07:46.288Z,12.32
2023-01-17T17:10:16.282Z,12.17
2023-01-17T17:12:43.598Z,12.11
2023-01-17T17:15:12.039Z,12.20
2023-01-17T17:17:41.205Z,12.35
2023-01-17T17:20:14.592Z,12.52
2023-01-17T17:22:44.120Z,12.36
2023-01-17T17:25:12.311Z,12.16
2023-01-17T17:27:39.839Z,12.25
2023-01-17T17:30:07.405Z,12.26
2023-01-17T17:32:34.641Z,12.33
2023-01-17T17:35:01.510Z,12.54
2023-01-17T17:37:29.252Z,12.33
2023-01-17T17:39:57.042Z,12.24
2023-01-17T17:42:24.318Z,12.16
2023-01-17T17:44:51.237Z,12.12
2023-01-17T17:47:18.567Z,12.22
2023-01-17T17:49:45.645Z,12.34
2023-01-17T17:52:13.145Z,12.21
2023-01-17T17:54:40.409Z,12.05
2023-01-17T17:57:07.717Z,11.99
2023-01-17T17:59:34.675Z,11.98
2023-01-17T18:02:01.937Z,12.08
2023-01-17T18:04:28.985Z,12.23
2023-01-17T18:06:57.664Z,12.20
2023-01-17T18:09:24.592Z,11.98
2023-01-17T18:11:51.544Z,11.98
2023-01-17T18:14:21.217Z,11.94
2023-01-17T18:16:48.816Z,11.92
2023-01-17T18:19:21.961Z,12.21
2023-01-17T18:21:51.447Z,12.11
2023-01-17T18:24:21.878Z,11.96
2023-01-17T18:26:54.443Z,12.05
2023-01-17T18:29:22.762Z,12.02
2023-01-17T18:31:51.121Z,12.23
2023-01-17T18:34:24.323Z,12.18
2023-01-17T18:36:52.832Z,12.05
2023-01-17T18:39:25.419Z,11.89
2023-01-17T18:41:53.253Z,11.86
2023-01-17T18:44:22.116Z,11.85
2023-01-17T18:46:55.961Z,11.88
2023-01-17T18:49:23.007Z,12.17
2023-01-17T18:51:51.437Z,12.08
2023-01-17T18:54:20.260Z,11.94
2023-01-17T18:56:47.255Z,11.92
2023-01-17T18:59:16.171Z,12.08
2023-01-17T19:01:43.822Z,12.08
2023-01-17T19:04:12.907Z,12.30
2023-01-17T19:06:42.372Z,12.21
2023-01-17T19:09:11.048Z,12.29
2023-01-17T19:11:38.221Z,12.20
2023-01-17T19:14:07.003Z,12.40
2023-01-17T19:16:39.273Z,12.54
2023-01-17T19:19:12.189Z,12.44
2023-01-17T19:21:39.153Z,12.25
2023-01-17T19:24:06.912Z,12.35
2023-01-17T19:26:34.298Z,12.37
2023-01-17T19:29:05.274Z,12.23
2023-01-17T19:31:39.216Z,12.30
2023-01-17T19:34:06.291Z,12.39
2023-01-17T19:36:37.697Z,12.19
2023-01-17T19:39:07.423Z,12.21
2023-01-17T19:41:37.363Z,12.24
2023-01-17T19:44:07.298Z,12.17
2023-01-17T19:46:35.432Z,12.28
2023-01-17T19:49:03.616Z,12.38
2023-01-17T19:51:30.625Z,12.22
2023-01-17T19:54:01.368Z,12.06
2023-01-17T19:56:29.364Z,12.22
2023-01-17T19:59:01.531Z,12.34
2023-01-17T20:01:31.785Z,12.22
2023-01-17T20:04:00.575Z,12.45
2023-01-17T20:06:31.267Z,12.39
2023-01-17T20:08:58.422Z,12.42
2023-01-17T20:11:27.431Z,12.45
2023-01-17T20:13:57.062Z,12.34
2023-01-17T20:16:26.228Z,12.50
2023-01-17T20:18:53.155Z,12.53
2023-01-17T20:21:26.015Z,12.36
2023-01-17T20:23:54.547Z,12.16
2023-01-17T20:26:34.870Z,12.08
2023-01-17T20:29:10.339Z,12.19
2023-01-17T20:31:39.176Z,12.42
2023-01-17T20:34:07.249Z,12.48
2023-01-17T20:36:34.680Z,12.33
2023-01-17T20:39:04.456Z,12.40
2023-01-17T20:41:32.712Z,12.33
2023-01-17T20:44:01.902Z,12.51
2023-01-17T20:46:33.353Z,12.53
2023-01-17T20:49:04.044Z,12.38
2023-01-17T20:51:34.467Z,12.22
2023-01-17T20:54:03.769Z,12.09
2023-01-17T20:56:34.790Z,12.07
2023-01-17T20:59:06.399Z,12.12
2023-01-17T21:01:34.601Z,12.35
2023-01-17T21:04:03.269Z,12.35
2023-01-17T21:06:30.597Z,12.17
2023-01-17T21:08:57.720Z,12.10
2023-01-17T21:11:27.650Z,12.25
2023-01-17T21:13:54.833Z,12.26
2023-01-17T21:16:23.143Z,12.27
2023-01-17T21:18:51.839Z,12.27
2023-01-17T21:21:24.283Z,12.02
2023-01-17T21:23:53.760Z,12.06
2023-01-17T21:26:22.438Z,12.04
2023-01-17T21:28:50.716Z,12.01
2023-01-17T21:31:26.279Z,12.14
2023-01-17T21:33:56.706Z,12.25
2023-01-17T21:36:27.284Z,11.97
2023-01-17T21:38:57.139Z,11.98
2023-01-17T21:41:29.459Z,12.08
2023-01-17T21:43:58.349Z,11.99
2023-01-17T21:46:26.159Z,12.10
2023-01-17T21:48:53.049Z,12.07
2023-01-17T21:51:21.812Z,11.92
2023-01-17T21:53:49.108Z,11.93
2023-01-17T21:56:34.729Z,11.98
2023-01-17T21:59:01.776Z,12.17
2023-01-17T22:01:32.394Z,12.34
2023-01-17T22:04:02.866Z,12.18
2023-01-17T22:06:32.500Z,12.26
2023-01-17T22:08:59.365Z,12.32
2023-01-17T22:11:30.037Z,12.30
2023-01-17T22:13:58.973Z,12.26
2023-01-17T22:16:26.576Z,12.47
2023-01-17T22:18:53.539Z,12.41
2023-01-17T22:21:25.876Z,12.43
2023-01-17T22:23:58.520Z,12.40
2023-01-17T22:26:30.781Z,12.34
2023-01-17T22:29:01.147Z,12.47
2023-01-17T22:31:28.674Z,12.63
2023-01-17T22:34:01.041Z,12.60
2023-01-17T22:36:29.067Z,12.56
2023-01-17T22:38:56.135Z,12.46
2023-01-17T22:41:25.539Z,12.41
2023-01-17T22:43:54.125Z,12.55
2023-01-17T22:46:25.050Z,12.67
2023-01-17T22:48:53.072Z,12.45
2023-01-17T22:51:21.678Z,12.46
2023-01-17T22:53:53.752Z,12.50
2023-01-17T22:56:28.826Z,12.50
2023-01-17T22:58:55.979Z,12.67
2023-01-17T23:01:25.551Z,12.74
2023-01-17T23:03:55.135Z,12.58
2023-01-17T23:06:28.392Z,12.58
2023-01-17T23:08:57.693Z,12.46
2023-01-17T23:11:43.958Z,12.53
2023-01-17T23:14:53.567Z,12.73
2023-01-17T23:17:40.374Z,12.68
2023-01-17T23:20:10.571Z,12.46
2023-01-17T23:22:37.807Z,12.51
2023-01-17T23:25:06.752Z,12.56
2023-01-17T23:27:59.678Z,12.64
2023-01-17T23:30:35.775Z,12.78
2023-01-17T23:33:14.375Z,12.79
2023-01-17T23:35:43.468Z,12.67
2023-01-17T23:38:34.131Z,12.66
2023-01-17T23:41:25.112Z,12.74
2023-01-17T23:43:53.637Z,12.87
2023-01-17T23:46:21.313Z,12.93
2023-01-17T23:48:48.860Z,12.75
2023-01-17T23:51:16.032Z,12.58
2023-01-17T23:53:43.294Z,12.68
2023-01-17T23:56:26.637Z,12.68
2023-01-17T23:58:53.557Z,12.86
